createdAt,value
2023-03-27T00:00:16.495Z,84.01
2023-03-27T00:04:03.904Z,84.18
2023-03-27T00:07:30.960Z,84.34
2023-03-27T00:10:59.804Z,84.42
2023-03-27T00:14:26.787Z,84.18
2023-03-27T00:17:54.592Z,84.14
2023-03-27T00:21:22.423Z,84.11
2023-03-27T00:24:51.030Z,84.29
2023-03-27T00:28:18.655Z,84.27
2023-03-27T00:31:46.378Z,84.32
2023-03-27T00:35:14.559Z,84.80
2023-03-27T00:38:43.342Z,84.68
2023-03-27T00:42:15.541Z,84.76
2023-03-27T00:45:44.127Z,84.82
2023-03-27T00:49:15.229Z,84.65
2023-03-27T00:52:47.970Z,84.41
2023-03-27T00:56:16.626Z,84.32
2023-03-27T00:59:47.782Z,84.33
2023-03-27T01:03:15.293Z,84.37
2023-03-27T01:06:43.504Z,84.54
2023-03-27T01:10:12.419Z,84.39
2023-03-27T01:14:02.142Z,84.71
2023-03-27T01:17:45.953Z,84.86
2023-03-27T01:21:43.538Z,84.80
2023-03-27T01:25:56.395Z,84.68
2023-03-27T01:29:31.188Z,84.67
2023-03-27T01:33:26.065Z,84.33
2023-03-27T01:37:14.854Z,84.00
2023-03-27T01:40:48.455Z,83.63
2023-03-27T01:44:20.739Z,83.39
2023-03-27T01:47:58.096Z,83.11
2023-03-27T01:51:28.811Z,82.52
2023-03-27T01:55:03.546Z,82.56
2023-03-27T01:58:37.905Z,82.77
2023-03-27T02:02:10.532Z,82.79
2023-03-27T02:05:43.252Z,82.70
2023-03-27T02:09:14.934Z,82.77
2023-03-27T02:12:47.631Z,83.11
2023-03-27T02:16:18.612Z,83.25
2023-03-27T02:19:53.117Z,83.60
2023-03-27T02:23:23.084Z,83.99
2023-03-27T02:27:01.898Z,83.91
2023-03-27T02:30:29.725Z,83.50
2023-03-27T02:34:22.569Z,83.12
2023-03-27T02:37:58.202Z,83.43
2023-03-27T02:41:57.227Z,83.24
2023-03-27T02:45:44.831Z,83.14
2023-03-27T02:49:16.881Z,83.10
2023-03-27T02:52:48.089Z,83.29
2023-03-27T02:56:18.963Z,83.25
2023-03-27T02:59:50.899Z,82.86
2023-03-27T03:03:22.343Z,82.44
2023-03-27T03:06:56.250Z,82.02
2023-03-27T03:10:24.727Z,81.96
2023-03-27T03:13:51.871Z,82.19
2023-03-27T03:17:19.486Z,81.93
2023-03-27T03:20:46.591Z,82.20
2023-03-27T03:24:13.609Z,82.56
2023-03-27T03:27:41.386Z,82.73
2023-03-27T03:31:12.915Z,82.61
2023-03-27T03:34:41.581Z,82.79
2023-03-27T03:38:08.303Z,83.30
2023-03-27T03:41:43.598Z,83.26
2023-03-27T03:45:12.723Z,83.29
2023-03-27T03:48:39.915Z,83.40
2023-03-27T03:52:07.402Z,83.58
2023-03-27T03:55:34.370Z,83.58
2023-03-27T03:59:02.075Z,83.37
2023-03-27T04:02:30.292Z,83.27
2023-03-27T04:06:05.690Z,83.09
2023-03-27T04:09:33.226Z,82.82
2023-03-27T04:13:09.251Z,82.63
2023-03-27T04:16:39.271Z,82.80
2023-03-27T04:20:17.293Z,82.69
2023-03-27T04:23:45.249Z,82.50
2023-03-27T04:27:13.602Z,82.54
2023-03-27T04:30:56.536Z,81.96
2023-03-27T04:34:42.739Z,82.07
2023-03-27T04:38:33.239Z,81.90
2023-03-27T04:42:00.473Z,81.38
2023-03-27T04:45:28.692Z,81.57
2023-03-27T04:48:56.444Z,81.51
2023-03-27T04:52:48.418Z,81.24
2023-03-27T04:56:17.731Z,81.17
2023-03-27T04:59:44.978Z,80.75
2023-03-27T05:03:32.568Z,80.74
2023-03-27T05:07:05.755Z,80.44
2023-03-27T05:10:32.924Z,80.46
2023-03-27T05:14:00.241Z,80.49
2023-03-27T05:17:29.150Z,79.92
2023-03-27T05:20:57.269Z,80.27
2023-03-27T05:24:25.180Z,79.40
2023-03-27T05:27:54.679Z,79.64
2023-03-27T05:31:22.413Z,79.33
2023-03-27T05:35:11.944Z,79.15
2023-03-27T05:38:42.422Z,78.34
2023-03-27T05:42:14.097Z,77.42
2023-03-27T05:45:42.314Z,76.76
2023-03-27T05:49:09.982Z,77.05
2023-03-27T05:52:37.850Z,76.14
2023-03-27T05:56:05.397Z,76.69
2023-03-27T05:59:39.989Z,76.85
2023-03-27T06:03:20.180Z,76.24
2023-03-27T06:06:57.289Z,76.29
2023-03-27T06:10:24.438Z,75.74
2023-03-27T06:14:04.172Z,75.61
2023-03-27T06:18:05.227Z,73.94
2023-03-27T06:21:37.401Z,73.93
2023-03-27T06:25:06.865Z,74.11
2023-03-27T06:28:34.768Z,73.37
2023-03-27T06:32:02.803Z,72.92
2023-03-27T06:35:35.879Z,70.87
2023-03-27T06:39:12.470Z,68.90
2023-03-27T06:42:49.121Z,66.31
2023-03-27T06:46:27.589Z,67.50
2023-03-27T06:50:13.118Z,67.28
2023-03-27T06:53:41.372Z,67.39
2023-03-27T06:57:08.619Z,65.62
2023-03-27T07:00:50.517Z,66.13
2023-03-27T07:04:17.609Z,67.02
2023-03-27T07:07:54.134Z,67.89
2023-03-27T07:11:24.129Z,68.18
2023-03-27T07:14:56.539Z,66.93
2023-03-27T07:18:26.581Z,66.70
2023-03-27T07:21:54.675Z,66.81
2023-03-27T07:25:22.160Z,66.32
2023-03-27T07:28:51.808Z,65.14
2023-03-27T07:32:34.010Z,65.22
2023-03-27T07:36:07.029Z,64.87
2023-03-27T07:39:52.834Z,64.98
2023-03-27T07:43:23.330Z,65.47
2023-03-27T07:46:52.182Z,66.60
2023-03-27T07:50:21.658Z,67.43
2023-03-27T07:53:49.378Z,68.10
2023-03-27T07:57:20.696Z,66.81
2023-03-27T08:00:53.122Z,66.40
2023-03-27T08:04:19.441Z,66.69
2023-03-27T08:08:01.456Z,65.28
2023-03-27T08:11:43.403Z,65.93
2023-03-27T08:15:12.278Z,64.37
2023-03-27T08:18:40.003Z,63.82
2023-03-27T08:22:08.967Z,63.29
2023-03-27T08:25:53.618Z,61.92
2023-03-27T08:29:21.747Z,60.92
2023-03-27T08:32:49.453Z,62.41
2023-03-27T08:36:17.028Z,61.63
2023-03-27T08:39:46.767Z,60.68
2023-03-27T08:43:20.059Z,60.33
2023-03-27T08:46:51.490Z,60.18
2023-03-27T08:50:32.671Z,60.41
2023-03-27T08:54:17.126Z,58.75
2023-03-27T08:57:46.706Z,57.57
2023-03-27T09:01:26.438Z,56.63
2023-03-27T09:05:01.754Z,56.37
2023-03-27T09:08:42.850Z,55.09
2023-03-27T09:12:22.707Z,54.33
2023-03-27T09:15:58.978Z,50.50
2023-03-27T09:19:36.923Z,51.63
2023-03-27T09:23:12.590Z,52.38
2023-03-27T09:27:19.468Z,52.56
2023-03-27T09:31:29.334Z,52.91
2023-03-27T09:34:57.339Z,53.03
2023-03-27T09:38:36.927Z,51.18
2023-03-27T09:42:18.324Z,52.62
2023-03-27T09:45:48.850Z,53.18
2023-03-27T09:49:18.464Z,52.96
2023-03-27T09:52:52.436Z,52.77
2023-03-27T09:56:42.797Z,53.05
2023-03-27T10:00:29.352Z,54.26
2023-03-27T10:03:59.915Z,54.97
2023-03-27T10:07:40.302Z,54.29
2023-03-27T10:11:24.185Z,54.18
2023-03-27T10:14:57.469Z,54.97
2023-03-27T10:18:31.581Z,53.41
2023-03-27T10:22:23.850Z,53.32
2023-03-27T10:25:53.676Z,53.68
2023-03-27T10:29:29.942Z,53.54
2023-03-27T10:32:57.195Z,53.18
2023-03-27T10:36:40.833Z,53.72
2023-03-27T10:40:19.516Z,52.08
2023-03-27T10:43:51.239Z,50.77
2023-03-27T10:47:24.618Z,51.36
2023-03-27T10:50:59.013Z,52.45
2023-03-27T10:54:54.995Z,54.00
2023-03-27T10:58:32.655Z,54.30
2023-03-27T11:02:11.760Z,54.18
2023-03-27T11:05:44.215Z,54.75
2023-03-27T11:09:28.155Z,53.60
2023-03-27T11:13:19.243Z,53.79
2023-03-27T11:16:53.996Z,53.92
2023-03-27T11:20:56.678Z,54.31
2023-03-27T11:24:38.354Z,54.64
2023-03-27T11:28:21.394Z,54.07
2023-03-27T11:31:52.924Z,54.63
2023-03-27T11:35:40.529Z,55.23
2023-03-27T11:39:35.992Z,54.63
2023-03-27T11:43:04.184Z,54.66
2023-03-27T11:46:47.473Z,54.95
2023-03-27T11:50:33.713Z,55.08
2023-03-27T11:54:13.434Z,54.89
2023-03-27T11:58:06.026Z,54.52
2023-03-27T12:01:48.953Z,55.38
2023-03-27T12:05:25.146Z,55.92
2023-03-27T12:09:26.002Z,55.35
2023-03-27T12:14:01.095Z,53.58
2023-03-27T12:17:58.007Z,54.32
2023-03-27T12:21:33.606Z,55.22
2023-03-27T12:25:41.299Z,55.72
2023-03-27T12:29:43.573Z,54.78
2023-03-27T12:33:34.693Z,54.07
2023-03-27T12:37:04.715Z,54.68
2023-03-27T12:40:39.037Z,53.30
2023-03-27T12:44:13.388Z,53.46
2023-03-27T12:48:06.482Z,54.22
2023-03-27T12:51:48.921Z,54.22
2023-03-27T12:55:37.194Z,53.42
2023-03-27T12:59:20.775Z,52.40
2023-03-27T13:03:26.579Z,52.85
2023-03-27T13:07:00.279Z,53.61
2023-03-27T13:10:56.591Z,52.66
2023-03-27T13:14:56.025Z,51.67
2023-03-27T13:18:43.604Z,52.35
2023-03-27T13:22:36.561Z,51.33
2023-03-27T13:26:23.257Z,50.03
2023-03-27T13:29:54.348Z,49.85
2023-03-27T13:33:39.700Z,50.08
2023-03-27T13:37:48.473Z,50.45
2023-03-27T13:41:51.877Z,51.64
2023-03-27T13:45:46.624Z,48.70
2023-03-27T13:49:51.385Z,46.54
2023-03-27T13:53:52.216Z,43.00
2023-03-27T13:57:58.576Z,45.24
2023-03-27T14:01:38.235Z,45.71
2023-03-27T14:05:25.317Z,44.84
2023-03-27T14:09:00.153Z,43.80
2023-03-27T14:13:18.342Z,41.44
2023-03-27T14:17:05.485Z,42.44
2023-03-27T14:20:35.485Z,41.35
2023-03-27T14:24:11.108Z,41.88
2023-03-27T14:27:49.889Z,41.56
2023-03-27T14:31:19.908Z,42.03
2023-03-27T14:35:30.382Z,42.28
2023-03-27T14:39:08.397Z,42.00
2023-03-27T14:42:41.783Z,39.68
2023-03-27T14:46:09.800Z,37.68
2023-03-27T14:49:39.177Z,38.89
2023-03-27T14:53:14.432Z,38.45
2023-03-27T14:57:14.090Z,41.25
2023-03-27T15:01:00.032Z,37.30
2023-03-27T15:04:31.717Z,37.67
2023-03-27T15:08:03.039Z,38.27
2023-03-27T15:11:57.815Z,38.19
2023-03-27T15:15:34.848Z,39.11
2023-03-27T15:19:09.873Z,39.65
2023-03-27T15:22:43.176Z,40.10
2023-03-27T15:26:16.219Z,40.26
2023-03-27T15:29:48.529Z,40.02
2023-03-27T15:33:22.242Z,40.47
2023-03-27T15:36:55.071Z,40.29
2023-03-27T15:40:42.333Z,39.45
2023-03-27T15:44:14.241Z,40.29
2023-03-27T15:47:42.413Z,39.99
2023-03-27T15:51:30.499Z,39.68
2023-03-27T15:54:58.401Z,41.43
2023-03-27T15:58:28.447Z,42.94
2023-03-27T16:01:56.942Z,41.45
2023-03-27T16:05:24.251Z,41.74
2023-03-27T16:08:51.708Z,42.11
2023-03-27T16:12:22.460Z,42.46
2023-03-27T16:15:59.932Z,43.12
2023-03-27T16:19:27.514Z,43.54
2023-03-27T16:22:54.532Z,42.88
2023-03-27T16:26:27.983Z,43.21
2023-03-27T16:29:55.603Z,42.43
2023-03-27T16:33:23.882Z,42.80
2023-03-27T16:36:55.265Z,41.91
2023-03-27T16:40:26.632Z,42.07
2023-03-27T16:43:54.431Z,42.30
2023-03-27T16:47:23.477Z,43.35
2023-03-27T16:50:51.419Z,43.21
2023-03-27T16:54:18.586Z,42.96
2023-03-27T16:57:47.253Z,43.03
2023-03-27T17:01:15.336Z,43.64
2023-03-27T17:04:46.096Z,44.50
2023-03-27T17:08:17.029Z,44.64
2023-03-27T17:11:48.089Z,45.08
2023-03-27T17:15:17.245Z,45.31
2023-03-27T17:18:46.796Z,45.46
2023-03-27T17:22:14.519Z,45.79
2023-03-27T17:25:43.475Z,46.23
2023-03-27T17:29:12.575Z,46.24
2023-03-27T17:32:42.161Z,46.76
2023-03-27T17:36:19.841Z,47.20
2023-03-27T17:39:50.111Z,47.67
2023-03-27T17:43:19.398Z,48.01
2023-03-27T17:46:47.920Z,47.99
2023-03-27T17:50:16.685Z,48.56
2023-03-27T17:53:47.280Z,48.91
2023-03-27T17:57:16.425Z,49.01
2023-03-27T18:00:43.932Z,49.14
2023-03-27T18:04:13.839Z,49.53
2023-03-27T18:07:42.708Z,49.88
2023-03-27T18:11:16.682Z,50.00
2023-03-27T18:14:47.025Z,50.09
2023-03-27T18:18:17.284Z,50.48
2023-03-27T18:21:46.486Z,50.35
2023-03-27T18:25:15.034Z,50.18
2023-03-27T18:28:44.788Z,50.21
2023-03-27T18:32:13.255Z,50.20
2023-03-27T18:35:43.115Z,50.38
2023-03-27T18:39:11.844Z,50.43
2023-03-27T18:42:41.503Z,50.59
2023-03-27T18:46:14.336Z,50.75
2023-03-27T18:49:46.874Z,50.92
2023-03-27T18:53:15.943Z,51.66
2023-03-27T18:56:42.950Z,51.66
2023-03-27T19:00:18.845Z,51.94
2023-03-27T19:03:51.655Z,52.22
2023-03-27T19:07:23.212Z,52.54
2023-03-27T19:10:51.906Z,52.67
2023-03-27T19:14:24.533Z,52.70
2023-03-27T19:18:13.626Z,52.97
2023-03-27T19:22:15.016Z,53.47
2023-03-27T19:25:49.953Z,53.76
2023-03-27T19:29:17.308Z,53.80
2023-03-27T19:32:44.398Z,54.25
2023-03-27T19:36:12.418Z,54.31
2023-03-27T19:39:39.607Z,54.61
2023-03-27T19:43:06.638Z,54.91
2023-03-27T19:46:33.839Z,55.29
2023-03-27T19:50:01.006Z,55.51
2023-03-27T19:53:47.602Z,55.80
2023-03-27T19:57:14.833Z,56.20
2023-03-27T20:00:50.191Z,56.45
2023-03-27T20:04:17.216Z,56.70
2023-03-27T20:07:44.309Z,56.94
2023-03-27T20:11:11.664Z,57.40
2023-03-27T20:14:38.813Z,57.91
2023-03-27T20:18:06.143Z,58.56
2023-03-27T20:21:36.125Z,58.69
2023-03-27T20:25:05.105Z,58.78
2023-03-27T20:28:34.023Z,59.19
2023-03-27T20:32:01.057Z,59.40
2023-03-27T20:35:28.304Z,59.63
2023-03-27T20:38:56.700Z,59.85
2023-03-27T20:42:24.050Z,60.16
2023-03-27T20:45:54.970Z,60.49
2023-03-27T20:49:39.849Z,60.77
2023-03-27T20:53:08.152Z,61.26
2023-03-27T20:56:35.934Z,61.34
2023-03-27T21:00:07.209Z,61.92
2023-03-27T21:03:35.350Z,62.40
2023-03-27T21:07:02.475Z,62.85
2023-03-27T21:10:29.500Z,62.90
2023-03-27T21:13:56.722Z,63.10
2023-03-27T21:17:24.256Z,63.35
2023-03-27T21:20:51.335Z,63.65
2023-03-27T21:24:19.626Z,63.75
2023-03-27T21:27:48.120Z,63.73
2023-03-27T21:31:15.380Z,63.76
2023-03-27T21:34:42.805Z,63.76
2023-03-27T21:38:09.909Z,64.16
2023-03-27T21:41:37.339Z,64.95
2023-03-27T21:45:04.958Z,65.97
2023-03-27T21:48:32.327Z,66.43
2023-03-27T21:51:59.383Z,66.82
2023-03-27T21:55:26.506Z,67.23
2023-03-27T21:58:53.515Z,67.88
2023-03-27T22:02:20.730Z,68.28
2023-03-27T22:06:08.011Z,68.86
2023-03-27T22:09:35.708Z,69.23
2023-03-27T22:13:03.274Z,69.71
2023-03-27T22:16:30.407Z,69.78
2023-03-27T22:19:57.701Z,69.89
2023-03-27T22:23:25.021Z,70.78
2023-03-27T22:26:52.579Z,71.53
2023-03-27T22:30:20.110Z,72.25
2023-03-27T22:33:47.313Z,72.88
2023-03-27T22:37:14.977Z,74.02
2023-03-27T22:40:42.084Z,74.23
2023-03-27T22:44:09.765Z,74.56
2023-03-27T22:47:36.787Z,75.53
2023-03-27T22:51:04.803Z,76.26
2023-03-27T22:54:32.261Z,76.76
2023-03-27T22:57:59.388Z,76.98
2023-03-27T23:01:26.661Z,77.77
2023-03-27T23:04:53.671Z,78.96
2023-03-27T23:08:24.052Z,79.30
2023-03-27T23:11:51.037Z,78.28
2023-03-27T23:15:30.347Z,79.17
2023-03-27T23:18:58.165Z,78.41
2023-03-27T23:22:25.809Z,78.52
2023-03-27T23:25:53.259Z,78.26
2023-03-27T23:29:20.439Z,78.46
2023-03-27T23:32:47.720Z,78.53
2023-03-27T23:36:17.314Z,78.99
2023-03-27T23:39:44.367Z,79.48
2023-03-27T23:43:11.466Z,80.93
2023-03-27T23:46:38.489Z,80.40
2023-03-27T23:50:06.415Z,80.12
2023-03-27T23:53:34.009Z,79.31
2023-03-27T23:57:01.190Z,79.86
